Binscarth, Canada
Current Conditions -  °F | °C
As of 12:00 AM on Sunday 26 Oct 2014 (Local Time) from CYDN Reporting Station
Clear Clear  
Wind Chill: 30°   Ceiling: Unl
Heat Index: 34°   Visibility: 9mi
Dew Point: 27°   Wind: 5mph
Humidity: 75%   Direction: 50°NE
Pressure: 29.95"   Gusts: NA
Location:  50.62°N, 101.28°W
Report Text: CYDN 260500Z AUTO 05004KT 9SM CLR 01/M03 A2995 RMK SLP154
Loading
Personal Weather Stations






























Interactive Weather Map
Tropical Storm Tracking
New forecast layout! Learn more

10-Day Weather Forecast

Advertisements
Track Severe Weather on mobile